Time;durP1;ratioP1;P1;durP2;ratioP2;P2;SDS_P1;SDS_P2;PMS_P1;PMS_P2;Temp;Humidity;BMP_temperature;BMP_pressure;BME280_temperature;BME280_humidity;BME280_pressure;Samples;Min_cycle;Max_cycle;Signal;HPM_P1;HPM_P2
2022/05/19 00:00:13;;;;;;;0.57;0.30;;;;;;;;;;4990581;28;20046;-69
2022/05/19 00:02:46;;;;;;;2.05;0.40;;;;;;;;;;4990252;28;20046;-69
2022/05/19 00:05:19;;;;;;;0.88;0.40;;;;;;;;;;4974353;28;20517;-69
2022/05/19 00:07:49;;;;;;;0.60;0.30;;;;;;;;;;4990781;28;20835;-69
2022/05/19 00:10:20;;;;;;;1.23;0.60;;;;;;;;;;4974703;28;20065;-69
2022/05/19 00:12:55;;;;;;;1.10;0.47;;;;;;;;;;4990828;28;20548;-69
2022/05/19 00:15:26;;;;;;;1.15;0.40;;;;;;;;;;5006016;28;20058;-69
2022/05/19 00:17:58;;;;;;;0.90;0.52;;;;;;;;;;4993787;28;20064;-69
2022/05/19 00:20:29;;;;;;;1.33;0.70;;;;;;;;;;5010104;28;20050;-70
2022/05/19 00:22:59;;;;;;;0.68;0.43;;;;;;;;;;5049776;28;20123;-68
2022/05/19 00:25:31;;;;;;;2.33;0.50;;;;;;;;;;5029501;28;20069;-69
2022/05/19 00:28:02;;;;;;;0.98;0.43;;;;;;;;;;4997164;28;20077;-68
2022/05/19 00:30:34;;;;;;;1.10;0.60;;;;;;;;;;5029718;28;20065;-69
2022/05/19 00:33:05;;;;;;;2.28;0.50;;;;;;;;;;5029893;28;20061;-70
2022/05/19 00:35:39;;;;;;;1.05;0.40;;;;;;;;;;5029879;28;20397;-70
2022/05/19 00:38:10;;;;;;;1.25;0.50;;;;;;;;;;5029642;28;20088;-69
2022/05/19 00:40:49;;;;;;;0.73;0.40;;;;;;;;;;4997338;28;20413;-70
2022/05/19 00:43:32;;;;;;;0.98;0.50;;;;;;;;;;5029856;28;20529;-68
2022/05/19 00:46:22;;;;;;;0.70;0.52;;;;;;;;;;5029738;28;20424;-71
2022/05/19 00:48:55;;;;;;;0.65;0.32;;;;;;;;;;4997689;28;20437;-69
2022/05/19 00:52:03;;;;;;;1.63;0.90;;;;;;;;;;5029608;28;20501;-69
2022/05/19 00:54:49;;;;;;;1.27;0.43;;;;;;;;;;4990567;28;20054;-69
2022/05/19 00:57:28;;;;;;;7.55;0.60;;;;;;;;;;4951397;28;20062;-69
2022/05/19 01:00:05;;;;;;;1.20;0.50;;;;;;;;;;4951639;28;20058;-69
2022/05/19 01:02:41;;;;;;;0.95;0.30;;;;;;;;;;4914851;28;20521;-69
2022/05/19 01:05:32;;;;;;;1.15;0.40;;;;;;;;;;4990120;28;20066;-68
2022/05/19 01:08:16;;;;;;;1.38;0.40;;;;;;;;;;4973444;28;20070;-69
2022/05/19 01:10:48;;;;;;;1.23;0.55;;;;;;;;;;4954385;28;20054;-68
2022/05/19 01:13:20;;;;;;;1.25;0.68;;;;;;;;;;4973228;28;20050;-68
2022/05/19 01:15:53;;;;;;;1.25;0.60;;;;;;;;;;4957982;28;20051;-68
2022/05/19 01:18:28;;;;;;;1.30;1.13;;;;;;;;;;4919865;29;20071;-68
2022/05/19 01:20:59;;;;;;;1.70;0.40;;;;;;;;;;4954567;29;20056;-68
2022/05/19 01:23:59;;;;;;;1.60;0.50;;;;;;;;;;4954789;29;20047;-68
2022/05/19 01:26:45;;;;;;;0.60;0.20;;;;;;;;;;4954967;29;20511;-68
2022/05/19 01:29:19;;;;;;;0.73;0.40;;;;;;;;;;4940526;28;20059;-68
2022/05/19 01:31:59;;;;;;;0.88;0.50;;;;;;;;;;4974457;28;20515;-68
2022/05/19 01:34:33;;;;;;;0.68;0.40;;;;;;;;;;4973864;28;20053;-68
2022/05/19 01:37:04;;;;;;;1.20;0.60;;;;;;;;;;4974025;28;20066;-68
2022/05/19 01:39:47;;;;;;;1.48;0.75;;;;;;;;;;4891214;29;20435;-68
2022/05/19 01:42:41;;;;;;;4.10;0.75;;;;;;;;;;4935338;29;20078;-68
2022/05/19 01:45:39;;;;;;;2.33;0.40;;;;;;;;;;4935506;29;20055;-68
2022/05/19 01:48:21;;;;;;;2.15;0.50;;;;;;;;;;4935365;29;20059;-68
2022/05/19 01:51:27;;;;;;;2.20;0.40;;;;;;;;;;4935312;29;20121;-68
2022/05/19 01:54:22;;;;;;;2.05;0.75;;;;;;;;;;4919915;29;20056;-68
2022/05/19 01:57:00;;;;;;;2.85;0.57;;;;;;;;;;4957473;28;20434;-68
2022/05/19 02:00:03;;;;;;;2.80;0.60;;;;;;;;;;5009838;28;20081;-68
2022/05/19 02:02:51;;;;;;;1.15;0.40;;;;;;;;;;4905777;29;20427;-68
2022/05/19 02:06:04;;;;;;;2.78;0.30;;;;;;;;;;4869122;29;20409;-68
2022/05/19 02:09:03;;;;;;;0.77;0.30;;;;;;;;;;4915979;29;20052;-68
2022/05/19 02:11:46;;;;;;;1.60;0.43;;;;;;;;;;4862628;29;20092;-68
2022/05/19 02:14:21;;;;;;;1.42;0.40;;;;;;;;;;4862667;29;20064;-68
2022/05/19 02:16:52;;;;;;;2.38;0.40;;;;;;;;;;4883733;29;20067;-68
2022/05/19 02:19:28;;;;;;;3.22;0.68;;;;;;;;;;4896965;29;20509;-68
2022/05/19 02:21:59;;;;;;;5.15;0.60;;;;;;;;;;4897002;29;20067;-68
2022/05/19 02:24:33;;;;;;;0.75;0.30;;;;;;;;;;4895688;29;20472;-68
2022/05/19 02:27:32;;;;;;;2.53;0.30;;;;;;;;;;4896488;29;20053;-68
2022/05/19 02:30:07;;;;;;;5.32;0.95;;;;;;;;;;4896246;29;20045;-68
2022/05/19 02:32:38;;;;;;;2.63;0.45;;;;;;;;;;4896782;29;20064;-68
2022/05/19 02:35:11;;;;;;;1.67;0.52;;;;;;;;;;4896539;29;20056;-68
2022/05/19 02:37:44;;;;;;;1.08;0.40;;;;;;;;;;4877566;29;20053;-68
2022/05/19 02:40:19;;;;;;;2.17;0.60;;;;;;;;;;4864922;29;20547;-68
2022/05/19 02:42:50;;;;;;;1.65;0.73;;;;;;;;;;4915205;29;20491;-69
2022/05/19 02:45:22;;;;;;;4.53;0.43;;;;;;;;;;4931091;29;20067;-68
2022/05/19 02:47:53;;;;;;;1.23;0.50;;;;;;;;;;4905771;29;20062;-68
2022/05/19 02:50:25;;;;;;;4.80;0.45;;;;;;;;;;4934332;29;20055;-68
2022/05/19 02:52:56;;;;;;;0.85;0.32;;;;;;;;;;4934351;29;20055;-68
2022/05/19 02:55:27;;;;;;;3.75;0.47;;;;;;;;;;4900387;29;20075;-68
2022/05/19 02:57:58;;;;;;;3.10;0.52;;;;;;;;;;4896455;29;20787;-68
2022/05/19 03:00:29;;;;;;;2.05;0.65;;;;;;;;;;4896387;29;20567;-68
2022/05/19 03:03:00;;;;;;;2.95;0.43;;;;;;;;;;4914604;29;20096;-68
2022/05/19 03:05:32;;;;;;;1.05;0.40;;;;;;;;;;4917214;29;20044;-68
2022/05/19 03:08:08;;;;;;;2.13;0.60;;;;;;;;;;4914853;29;20060;-68
2022/05/19 03:10:40;;;;;;;4.45;0.93;;;;;;;;;;4900590;29;20497;-68
2022/05/19 03:13:22;;;;;;;2.55;0.50;;;;;;;;;;4914826;29;20063;-68
2022/05/19 03:15:52;;;;;;;5.10;0.50;;;;;;;;;;4928057;29;20436;-68
2022/05/19 03:18:23;;;;;;;3.25;0.70;;;;;;;;;;4880338;29;20060;-68
2022/05/19 03:20:54;;;;;;;2.80;0.50;;;;;;;;;;4908322;29;20052;-68
2022/05/19 03:23:25;;;;;;;3.53;0.57;;;;;;;;;;4914337;29;20479;-68
2022/05/19 03:25:56;;;;;;;4.60;0.70;;;;;;;;;;4882841;29;20072;-68
2022/05/19 03:28:26;;;;;;;4.60;0.75;;;;;;;;;;4876959;29;20421;-68
2022/05/19 03:30:57;;;;;;;2.97;0.80;;;;;;;;;;4876983;29;20057;-68
2022/05/19 03:33:28;;;;;;;2.35;0.70;;;;;;;;;;4876901;29;20072;-68
2022/05/19 03:35:59;;;;;;;1.85;0.43;;;;;;;;;;4876820;29;20057;-68
2022/05/19 03:38:30;;;;;;;5.25;0.80;;;;;;;;;;4876873;29;20110;-68
2022/05/19 03:41:01;;;;;;;2.53;0.75;;;;;;;;;;4857747;29;20079;-68
2022/05/19 03:43:31;;;;;;;2.45;0.70;;;;;;;;;;4895386;29;20072;-68
2022/05/19 03:46:04;;;;;;;1.73;0.50;;;;;;;;;;4876840;29;20056;-68
2022/05/19 03:48:38;;;;;;;4.30;0.65;;;;;;;;;;4900584;29;20060;-68
2022/05/19 03:51:11;;;;;;;3.67;0.63;;;;;;;;;;4917842;29;20451;-68
2022/05/19 03:53:42;;;;;;;3.08;0.60;;;;;;;;;;4917571;29;20051;-68
2022/05/19 03:56:13;;;;;;;4.80;0.60;;;;;;;;;;4966281;28;20065;-68
2022/05/19 03:58:45;;;;;;;4.28;0.63;;;;;;;;;;4959488;28;20069;-68
2022/05/19 04:01:17;;;;;;;2.97;0.57;;;;;;;;;;4971431;28;20080;-68
2022/05/19 04:03:49;;;;;;;5.38;0.80;;;;;;;;;;4924657;29;20044;-68
2022/05/19 04:06:20;;;;;;;4.63;0.88;;;;;;;;;;4932744;29;20412;-68
2022/05/19 04:08:52;;;;;;;5.80;0.68;;;;;;;;;;4917396;29;20058;-68
2022/05/19 04:11:23;;;;;;;2.50;0.55;;;;;;;;;;4932998;29;20055;-68
2022/05/19 04:13:54;;;;;;;2.90;0.85;;;;;;;;;;4917110;29;20055;-68
2022/05/19 04:16:25;;;;;;;2.30;0.70;;;;;;;;;;4901167;29;20051;-68
2022/05/19 04:18:55;;;;;;;3.35;0.55;;;;;;;;;;4932708;29;20124;-68
2022/05/19 04:21:26;;;;;;;3.25;0.70;;;;;;;;;;4932679;29;20067;-68
2022/05/19 04:23:57;;;;;;;3.22;0.50;;;;;;;;;;4956787;28;20157;-68
2022/05/19 04:26:29;;;;;;;2.88;0.80;;;;;;;;;;4955524;28;20507;-68
2022/05/19 04:28:59;;;;;;;2.78;0.65;;;;;;;;;;4970863;28;20113;-68
2022/05/19 04:31:30;;;;;;;5.05;0.98;;;;;;;;;;4939287;28;20066;-69
2022/05/19 04:34:01;;;;;;;3.95;0.88;;;;;;;;;;4908024;28;20061;-68
2022/05/19 04:36:32;;;;;;;2.33;0.70;;;;;;;;;;4923271;28;20062;-68
2022/05/19 04:39:04;;;;;;;2.05;0.52;;;;;;;;;;4970990;28;20051;-68
2022/05/19 04:41:34;;;;;;;2.92;0.60;;;;;;;;;;5028059;28;20057;-68
2022/05/19 04:44:05;;;;;;;6.22;0.65;;;;;;;;;;5071882;28;20055;-68
2022/05/19 04:46:36;;;;;;;4.93;1.15;;;;;;;;;;5071312;28;20056;-68
2022/05/19 04:49:07;;;;;;;4.40;0.60;;;;;;;;;;5036744;28;20041;-68
2022/05/19 04:51:38;;;;;;;3.30;0.70;;;;;;;;;;5053649;28;20052;-68
2022/05/19 04:54:08;;;;;;;2.25;0.55;;;;;;;;;;5029180;28;20405;-68
2022/05/19 04:56:44;;;;;;;2.90;0.55;;;;;;;;;;5029457;28;20450;-68
2022/05/19 04:59:14;;;;;;;3.67;0.70;;;;;;;;;;5029459;28;20444;-68
2022/05/19 05:01:48;;;;;;;1.98;0.73;;;;;;;;;;5012817;28;20535;-68
2022/05/19 05:04:19;;;;;;;2.38;0.70;;;;;;;;;;5029496;28;20045;-68
2022/05/19 05:06:50;;;;;;;2.88;0.60;;;;;;;;;;5013867;28;20425;-68
2022/05/19 05:09:21;;;;;;;4.35;0.77;;;;;;;;;;5013187;28;20048;-68
2022/05/19 05:11:51;;;;;;;3.38;0.70;;;;;;;;;;5029469;28;20521;-68
2022/05/19 05:14:22;;;;;;;3.30;0.60;;;;;;;;;;5029303;28;20053;-68
2022/05/19 05:16:55;;;;;;;6.22;0.70;;;;;;;;;;5029413;28;20398;-68
2022/05/19 05:19:25;;;;;;;3.85;1.13;;;;;;;;;;5029326;28;20386;-68
2022/05/19 05:21:58;;;;;;;2.03;0.80;;;;;;;;;;5029280;28;20054;-68
2022/05/19 05:24:29;;;;;;;2.33;0.63;;;;;;;;;;5028979;28;20401;-68
2022/05/19 05:27:00;;;;;;;3.45;0.68;;;;;;;;;;5029242;28;20049;-68
2022/05/19 05:29:35;;;;;;;2.10;0.65;;;;;;;;;;4996565;28;20056;-68
2022/05/19 05:32:06;;;;;;;3.83;0.77;;;;;;;;;;5056531;28;20055;-68
2022/05/19 05:34:37;;;;;;;2.80;0.65;;;;;;;;;;5071296;28;20052;-68
2022/05/19 05:37:08;;;;;;;3.55;0.80;;;;;;;;;;4979612;28;20424;-68
2022/05/19 05:39:38;;;;;;;4.35;0.80;;;;;;;;;;4996484;28;20054;-67
2022/05/19 05:42:09;;;;;;;5.15;0.93;;;;;;;;;;4989503;28;20437;-68
2022/05/19 05:44:41;;;;;;;6.53;1.08;;;;;;;;;;4989656;28;20433;-68
2022/05/19 05:47:11;;;;;;;3.58;0.75;;;;;;;;;;4989897;28;20061;-68
2022/05/19 05:49:42;;;;;;;7.25;0.93;;;;;;;;;;4989452;28;20065;-68
2022/05/19 05:52:12;;;;;;;5.50;0.80;;;;;;;;;;4973290;28;20058;-68
2022/05/19 05:54:43;;;;;;;5.53;1.20;;;;;;;;;;4989618;28;20054;-68
2022/05/19 05:57:16;;;;;;;6.05;1.08;;;;;;;;;;4957321;28;20414;-68
2022/05/19 05:59:47;;;;;;;6.35;1.13;;;;;;;;;;4991454;28;20062;-68
2022/05/19 06:02:17;;;;;;;4.32;0.80;;;;;;;;;;4972906;28;20054;-68
2022/05/19 06:04:48;;;;;;;3.67;0.80;;;;;;;;;;4941532;28;20061;-68
2022/05/19 06:07:19;;;;;;;5.65;1.27;;;;;;;;;;4973639;28;20059;-69
2022/05/19 06:09:50;;;;;;;7.63;1.10;;;;;;;;;;4973486;28;20050;-69
2022/05/19 06:12:21;;;;;;;3.63;0.90;;;;;;;;;;4989331;28;20054;-69
2022/05/19 06:14:56;;;;;;;3.47;1.00;;;;;;;;;;4986820;28;20053;-69
2022/05/19 06:17:27;;;;;;;3.78;0.70;;;;;;;;;;5012437;28;20197;-68
2022/05/19 06:19:58;;;;;;;3.50;0.80;;;;;;;;;;5012348;28;20510;-69
2022/05/19 06:22:28;;;;;;;1.40;0.63;;;;;;;;;;4972981;28;20055;-69
2022/05/19 06:24:59;;;;;;;8.68;0.93;;;;;;;;;;4972982;28;20546;-68
2022/05/19 06:27:30;;;;;;;4.90;0.90;;;;;;;;;;4959857;28;20043;-68
2022/05/19 06:30:01;;;;;;;4.43;0.80;;;;;;;;;;4976769;28;20058;-69
2022/05/19 06:32:32;;;;;;;2.95;1.08;;;;;;;;;;4921841;29;20058;-69
2022/05/19 06:35:05;;;;;;;4.68;0.50;;;;;;;;;;4953521;29;20051;-68
2022/05/19 06:37:37;;;;;;;3.40;0.80;;;;;;;;;;4938190;29;20062;-69
2022/05/19 06:40:09;;;;;;;5.88;1.02;;;;;;;;;;4942756;29;20128;-68
2022/05/19 06:42:40;;;;;;;4.22;0.88;;;;;;;;;;4915150;29;20521;-69
2022/05/19 06:45:14;;;;;;;5.90;1.13;;;;;;;;;;4915657;29;20064;-68
2022/05/19 06:47:47;;;;;;;4.47;0.90;;;;;;;;;;4915095;29;20052;-68
2022/05/19 06:50:19;;;;;;;5.35;0.98;;;;;;;;;;4868913;29;20053;-68
2022/05/19 06:52:53;;;;;;;4.55;0.82;;;;;;;;;;4915320;29;20492;-69
2022/05/19 06:55:26;;;;;;;4.13;0.85;;;;;;;;;;4915232;29;20063;-71
2022/05/19 06:57:56;;;;;;;2.63;0.75;;;;;;;;;;4915247;29;20067;-70
2022/05/19 07:00:28;;;;;;;6.40;1.30;;;;;;;;;;4927219;29;20067;-69
2022/05/19 07:03:01;;;;;;;2.55;0.90;;;;;;;;;;4944023;28;20058;-69
2022/05/19 07:05:39;;;;;;;3.33;1.02;;;;;;;;;;4972431;28;20059;-69
2022/05/19 07:08:10;;;;;;;5.47;0.90;;;;;;;;;;4956198;28;20061;-69
2022/05/19 07:10:40;;;;;;;3.63;1.02;;;;;;;;;;4955881;28;20065;-69
2022/05/19 07:13:12;;;;;;;4.82;1.00;;;;;;;;;;4985988;28;20065;-68
2022/05/19 07:15:43;;;;;;;7.40;1.00;;;;;;;;;;4991957;28;20054;-68
2022/05/19 07:18:14;;;;;;;6.55;0.93;;;;;;;;;;4991671;28;20054;-68
2022/05/19 07:20:44;;;;;;;3.47;0.82;;;;;;;;;;5004878;28;20069;-69
2022/05/19 07:23:28;;;;;;;3.42;0.90;;;;;;;;;;5011093;28;20049;-69
2022/05/19 07:25:59;;;;;;;4.80;0.90;;;;;;;;;;5002769;28;20057;-68
2022/05/19 07:28:30;;;;;;;3.33;0.70;;;;;;;;;;5034611;28;20060;-69
2022/05/19 07:31:02;;;;;;;6.68;0.68;;;;;;;;;;5030640;28;20057;-69
2022/05/19 07:33:36;;;;;;;8.48;1.20;;;;;;;;;;5030880;28;20060;-69
2022/05/19 07:36:08;;;;;;;4.63;0.80;;;;;;;;;;5050338;28;20404;-68
2022/05/19 07:38:39;;;;;;;5.50;0.90;;;;;;;;;;5026770;28;20061;-69
2022/05/19 07:41:10;;;;;;;4.75;0.80;;;;;;;;;;4993985;28;20061;-69
2022/05/19 07:43:41;;;;;;;1.08;0.70;;;;;;;;;;5010794;28;20157;-70
2022/05/19 07:46:16;;;;;;;3.88;0.73;;;;;;;;;;5010760;28;20054;-69
2022/05/19 07:48:47;;;;;;;2.60;0.52;;;;;;;;;;5010761;28;20057;-70
2022/05/19 07:51:18;;;;;;;3.78;0.57;;;;;;;;;;5010329;28;20050;-69
2022/05/19 07:53:49;;;;;;;3.65;1.00;;;;;;;;;;4978015;28;20409;-69
2022/05/19 07:56:21;;;;;;;4.63;1.10;;;;;;;;;;5010594;28;20423;-68
2022/05/19 07:58:54;;;;;;;2.33;0.65;;;;;;;;;;4978025;28;20050;-68
2022/05/19 08:01:26;;;;;;;2.83;1.00;;;;;;;;;;5010276;28;20394;-69
2022/05/19 08:03:57;;;;;;;2.33;0.70;;;;;;;;;;5010474;28;20057;-68
2022/05/19 08:06:28;;;;;;;7.60;0.90;;;;;;;;;;5010381;28;20050;-68
2022/05/19 08:08:59;;;;;;;2.90;0.80;;;;;;;;;;5016331;28;20044;-68
2022/05/19 08:11:30;;;;;;;3.58;0.70;;;;;;;;;;5049722;28;20071;-68
2022/05/19 08:16:50;;;;;;;6.35;0.80;;;;;;;;;;5049951;28;20048;-68
2022/05/19 08:19:20;;;;;;;6.00;1.05;;;;;;;;;;5050196;28;20416;-68
2022/05/19 08:21:51;;;;;;;3.90;0.73;;;;;;;;;;5050408;28;20500;-68
2022/05/19 08:24:24;;;;;;;6.03;0.80;;;;;;;;;;5050803;28;20052;-68
2022/05/19 08:26:55;;;;;;;4.40;0.70;;;;;;;;;;5050755;28;20041;-68
2022/05/19 08:29:27;;;;;;;3.30;0.70;;;;;;;;;;5051975;28;20048;-68
2022/05/19 08:31:58;;;;;;;7.25;0.98;;;;;;;;;;5033240;28;20068;-68
2022/05/19 08:34:28;;;;;;;4.35;0.90;;;;;;;;;;5051866;28;20527;-68
2022/05/19 08:36:58;;;;;;;5.53;1.23;;;;;;;;;;5051833;28;20041;-68
2022/05/19 08:39:30;;;;;;;3.67;0.98;;;;;;;;;;5029849;28;20077;-68
2022/05/19 08:42:05;;;;;;;6.22;1.02;;;;;;;;;;5029676;28;20053;-68
2022/05/19 08:44:45;;;;;;;4.00;0.95;;;;;;;;;;5049313;28;20049;-68
2022/05/19 08:47:20;;;;;;;2.03;0.93;;;;;;;;;;5049705;28;20052;-68
2022/05/19 08:50:01;;;;;;;7.85;1.05;;;;;;;;;;5049313;28;20064;-68
2022/05/19 08:52:45;;;;;;;3.90;0.90;;;;;;;;;;5049532;28;20041;-68
2022/05/19 08:55:17;;;;;;;7.75;1.02;;;;;;;;;;5049231;28;20045;-68
2022/05/19 08:58:27;;;;;;;3.38;1.42;;;;;;;;;;5001026;28;20045;-68
2022/05/19 09:01:35;;;;;;;3.20;0.90;;;;;;;;;;5029245;28;20049;-68
2022/05/19 09:04:26;;;;;;;6.93;0.82;;;;;;;;;;4996619;28;20057;-68
2022/05/19 09:10:30;;;;;;;5.50;1.38;;;;;;;;;;5029518;28;20064;-68
2022/05/19 09:13:25;;;;;;;2.63;1.00;;;;;;;;;;5029396;28;20166;-68
2022/05/19 09:16:20;;;;;;;4.68;0.93;;;;;;;;;;5029387;28;20050;-68
2022/05/19 09:19:09;;;;;;;4.32;0.93;;;;;;;;;;5029066;28;20066;-68
2022/05/19 09:21:42;;;;;;;3.78;1.23;;;;;;;;;;5009207;28;20050;-68
2022/05/19 09:24:13;;;;;;;5.88;0.80;;;;;;;;;;5009237;28;20058;-68
2022/05/19 09:26:54;;;;;;;5.45;1.23;;;;;;;;;;5009449;28;20050;-68
2022/05/19 09:29:49;;;;;;;11.10;1.58;;;;;;;;;;5009582;28;20057;-68
2022/05/19 09:32:34;;;;;;;2.33;0.90;;;;;;;;;;4989371;28;20047;-67
2022/05/19 09:35:09;;;;;;;6.53;1.58;;;;;;;;;;4993578;28;20063;-68
2022/05/19 09:38:12;;;;;;;4.82;1.08;;;;;;;;;;4977102;28;20062;-68
2022/05/19 09:40:47;;;;;;;6.10;1.83;;;;;;;;;;4977726;28;20050;-68
2022/05/19 09:43:33;;;;;;;10.38;1.40;;;;;;;;;;4961252;28;20536;-68
2022/05/19 09:46:14;;;;;;;5.30;1.17;;;;;;;;;;4993380;28;20061;-68
2022/05/19 09:48:49;;;;;;;4.60;1.77;;;;;;;;;;4993303;28;20046;-68
2022/05/19 09:51:20;;;;;;;6.65;2.05;;;;;;;;;;4993472;28;20461;-68
2022/05/19 09:53:56;;;;;;;7.25;2.05;;;;;;;;;;4945080;28;20051;-68
2022/05/19 09:56:43;;;;;;;11.18;1.77;;;;;;;;;;4993497;28;20061;-68
2022/05/19 09:59:25;;;;;;;2.75;1.27;;;;;;;;;;5005501;28;20053;-68
2022/05/19 10:02:17;;;;;;;3.22;1.15;;;;;;;;;;5016036;28;20068;-68
2022/05/19 10:04:55;;;;;;;8.13;1.75;;;;;;;;;;4944604;28;20055;-68
2022/05/19 10:07:35;;;;;;;5.05;1.33;;;;;;;;;;4992899;28;20470;-68
2022/05/19 10:10:24;;;;;;;5.40;1.63;;;;;;;;;;4973207;28;20051;-68
2022/05/19 10:13:02;;;;;;;3.17;1.42;;;;;;;;;;4926277;28;20066;-67
2022/05/19 10:16:07;;;;;;;5.22;1.25;;;;;;;;;;4985419;28;20054;-68
2022/05/19 10:18:52;;;;;;;4.40;1.15;;;;;;;;;;4903378;29;20074;-68
2022/05/19 10:21:36;;;;;;;5.72;1.23;;;;;;;;;;4935013;29;20071;-67
2022/05/19 10:24:37;;;;;;;4.65;2.47;;;;;;;;;;4943739;29;20047;-68
2022/05/19 10:33:36;;;;;;;5.82;1.30;;;;;;;;;;4896758;29;20564;-68
2022/05/19 10:36:47;;;;;;;3.45;1.38;;;;;;;;;;4859176;29;20098;-67
2022/05/19 10:39:51;;;;;;;6.00;1.98;;;;;;;;;;4852766;29;20118;-67
2022/05/19 10:42:58;;;;;;;14.57;3.45;;;;;;;;;;4807224;29;20515;-68
2022/05/19 10:45:40;;;;;;;14.15;5.95;;;;;;;;;;4858185;29;20498;-68
2022/05/19 10:48:47;;;;;;;27.60;9.27;;;;;;;;;;4856314;29;20061;-67
2022/05/19 10:51:26;;;;;;;21.23;5.47;;;;;;;;;;4877508;29;20065;-67
2022/05/19 10:54:29;;;;;;;9.35;3.05;;;;;;;;;;4877643;29;20053;-67
2022/05/19 10:57:36;;;;;;;8.65;2.75;;;;;;;;;;4840663;29;20519;-68
2022/05/19 11:00:22;;;;;;;7.32;2.75;;;;;;;;;;4855704;29;20066;-67
2022/05/19 11:03:14;;;;;;;11.75;3.78;;;;;;;;;;4840896;29;20133;-67
2022/05/19 11:05:52;;;;;;;10.02;4.65;;;;;;;;;;4859040;29;20052;-67
2022/05/19 11:08:31;;;;;;;11.50;2.35;;;;;;;;;;4858802;29;20069;-67
2022/05/19 11:11:26;;;;;;;11.20;2.70;;;;;;;;;;4858594;29;20058;-68
2022/05/19 11:14:23;;;;;;;10.10;2.90;;;;;;;;;;4873974;28;20505;-67
2022/05/19 11:17:09;;;;;;;8.88;2.60;;;;;;;;;;4990674;28;20050;-67
2022/05/19 11:19:53;;;;;;;10.27;1.88;;;;;;;;;;5011360;28;20150;-67
2022/05/19 11:22:31;;;;;;;12.13;2.22;;;;;;;;;;5015483;28;20065;-68
2022/05/19 11:28:18;;;;;;;8.88;1.95;;;;;;;;;;5034442;28;20057;-67
2022/05/19 11:30:59;;;;;;;7.63;1.55;;;;;;;;;;5011002;28;20064;-67
2022/05/19 11:33:37;;;;;;;3.28;1.08;;;;;;;;;;4994442;28;20050;-67
2022/05/19 11:36:47;;;;;;;2.80;0.90;;;;;;;;;;4962467;28;20409;-67
2022/05/19 11:39:24;;;;;;;5.38;1.17;;;;;;;;;;4978296;28;20062;-67
2022/05/19 11:42:00;;;;;;;6.25;0.85;;;;;;;;;;5010823;28;20068;-67
2022/05/19 11:44:36;;;;;;;7.93;1.50;;;;;;;;;;4971820;28;20051;-67
2022/05/19 11:47:12;;;;;;;6.43;1.52;;;;;;;;;;4956378;28;20055;-67
2022/05/19 11:55:54;;;;;;;56.22;18.80;;;;;;;;;;4952415;28;20059;-67
2022/05/19 11:58:29;;;;;;;5.68;1.95;;;;;;;;;;4936564;28;20058;-66
2022/05/19 12:01:03;;;;;;;10.60;3.90;;;;;;;;;;4952215;28;20102;-67
2022/05/19 12:04:04;;;;;;;12.02;4.03;;;;;;;;;;4948010;28;20047;-67
2022/05/19 12:06:46;;;;;;;10.77;4.35;;;;;;;;;;4948490;28;20060;-67
2022/05/19 12:09:16;;;;;;;7.15;1.75;;;;;;;;;;4964718;28;20055;-66
2022/05/19 12:12:05;;;;;;;4.72;1.20;;;;;;;;;;4932737;29;20397;-66
2022/05/19 12:14:40;;;;;;;16.13;5.80;;;;;;;;;;4951752;29;20058;-67
2022/05/19 12:17:29;;;;;;;6.65;2.30;;;;;;;;;;4952068;29;20071;-67
2022/05/19 12:20:03;;;;;;;7.57;1.90;;;;;;;;;;4951968;29;20160;-67
2022/05/19 12:22:44;;;;;;;5.38;1.15;;;;;;;;;;4951740;29;20066;-67
2022/05/19 12:25:25;;;;;;;7.93;2.08;;;;;;;;;;4980183;28;20080;-67
2022/05/19 12:28:24;;;;;;;;;;;;;;;;;;4986486;28;20058;-67
2022/05/19 12:33:59;;;;;;;4.90;0.90;;;;;;;;;;5002234;28;20408;-67
2022/05/19 12:37:12;;;;;;;4.88;1.55;;;;;;;;;;4959009;28;20067;-66
2022/05/19 12:39:45;;;;;;;26.98;10.35;;;;;;;;;;4990444;28;20067;-67
2022/05/19 12:42:40;;;;;;;15.55;6.45;;;;;;;;;;5029889;28;20045;-67
2022/05/19 12:45:19;;;;;;;8.43;2.28;;;;;;;;;;5029698;28;20060;-67
2022/05/19 12:48:08;;;;;;;8.02;2.97;;;;;;;;;;4989983;28;20053;-67
2022/05/19 12:50:45;;;;;;;20.75;7.47;;;;;;;;;;4973721;28;20050;-67
2022/05/19 12:53:26;;;;;;;5.88;1.52;;;;;;;;;;5026631;28;20445;-67
2022/05/19 12:55:59;;;;;;;7.20;1.58;;;;;;;;;;4989906;28;20077;-67
2022/05/19 12:58:45;;;;;;;5.63;1.20;;;;;;;;;;4990237;28;20085;-65
2022/05/19 13:01:19;;;;;;;6.63;2.53;;;;;;;;;;4990117;28;20560;-66
2022/05/19 13:04:08;;;;;;;8.07;1.63;;;;;;;;;;4990533;28;20397;-67
2022/05/19 13:06:45;;;;;;;4.45;1.42;;;;;;;;;;4974451;28;20069;-67
2022/05/19 13:09:21;;;;;;;8.85;2.67;;;;;;;;;;4992608;28;20042;-67
2022/05/19 13:11:55;;;;;;;5.80;1.58;;;;;;;;;;4994269;28;20434;-67
2022/05/19 13:14:42;;;;;;;6.88;1.23;;;;;;;;;;4993959;28;20050;-67
2022/05/19 13:17:23;;;;;;;3.42;0.80;;;;;;;;;;4994149;28;20050;-67
2022/05/19 13:19:54;;;;;;;3.80;1.40;;;;;;;;;;4994006;28;20123;-67
2022/05/19 13:22:32;;;;;;;5.15;1.45;;;;;;;;;;4994097;28;20057;-67
2022/05/19 13:25:10;;;;;;;5.80;0.90;;;;;;;;;;4967172;28;20054;-67
2022/05/19 13:30:43;;;;;;;2.80;1.40;;;;;;;;;;4993852;28;20071;-67
2022/05/19 13:33:22;;;;;;;6.50;1.10;;;;;;;;;;5007138;28;20052;-67
2022/05/19 13:36:09;;;;;;;5.13;0.90;;;;;;;;;;5016381;28;20849;-67
2022/05/19 13:38:41;;;;;;;3.10;1.00;;;;;;;;;;4993578;28;20054;-67
2022/05/19 13:41:13;;;;;;;5.55;1.63;;;;;;;;;;4993637;28;20529;-67
2022/05/19 13:43:48;;;;;;;7.03;1.80;;;;;;;;;;4993519;28;20054;-67
2022/05/19 13:46:20;;;;;;;3.55;1.20;;;;;;;;;;4993615;28;20043;-67
2022/05/19 13:48:52;;;;;;;7.03;1.70;;;;;;;;;;4993448;28;20058;-66
2022/05/19 13:51:28;;;;;;;9.55;2.75;;;;;;;;;;4993236;28;20062;-66
2022/05/19 13:54:01;;;;;;;8.23;2.55;;;;;;;;;;4993204;28;20046;-67
2022/05/19 13:56:47;;;;;;;14.40;5.88;;;;;;;;;;4969832;28;20634;-67
2022/05/19 13:59:21;;;;;;;6.15;1.70;;;;;;;;;;4954432;29;20051;-66
2022/05/19 14:01:58;;;;;;;12.00;1.90;;;;;;;;;;4957299;28;20080;-67
2022/05/19 14:04:30;;;;;;;8.50;2.15;;;;;;;;;;4973303;28;20062;-67
2022/05/19 14:07:02;;;;;;;7.45;1.85;;;;;;;;;;4925660;28;20247;-67
2022/05/19 14:10:03;;;;;;;5.55;1.55;;;;;;;;;;4989608;28;20062;-66
2022/05/19 14:12:39;;;;;;;6.60;1.50;;;;;;;;;;4973488;28;20054;-67
2022/05/19 14:15:16;;;;;;;4.82;1.40;;;;;;;;;;4936741;28;20060;-67
2022/05/19 14:17:59;;;;;;;7.07;2.10;;;;;;;;;;4941648;28;20061;-67
2022/05/19 14:20:38;;;;;;;4.18;1.50;;;;;;;;;;4972201;28;20168;-67
2022/05/19 14:23:25;;;;;;;12.70;5.38;;;;;;;;;;4972813;28;20460;-67
2022/05/19 14:26:09;;;;;;;5.93;2.10;;;;;;;;;;4934542;29;20067;-67
2022/05/19 14:28:48;;;;;;;7.13;1.40;;;;;;;;;;4903064;29;20059;-67
2022/05/19 14:31:54;;;;;;;8.32;1.85;;;;;;;;;;4934765;29;20400;-67
2022/05/19 14:34:42;;;;;;;5.65;1.50;;;;;;;;;;4896969;29;20081;-67
2022/05/19 14:37:42;;;;;;;3.70;0.88;;;;;;;;;;4896788;29;20057;-67
2022/05/19 14:43:14;;;;;;;2.58;1.30;;;;;;;;;;4896694;29;20051;-66
2022/05/19 14:45:51;;;;;;;8.63;0.95;;;;;;;;;;4896806;29;20063;-66
2022/05/19 14:48:28;;;;;;;5.68;1.00;;;;;;;;;;4896579;29;20053;-66
2022/05/19 14:51:01;;;;;;;5.43;0.60;;;;;;;;;;4896549;29;20064;-66
2022/05/19 14:53:35;;;;;;;4.57;1.33;;;;;;;;;;4911728;29;20048;-65
2022/05/19 14:56:15;;;;;;;5.22;1.02;;;;;;;;;;4915385;29;20052;-66
2022/05/19 14:59:04;;;;;;;6.65;2.45;;;;;;;;;;4914973;29;20474;-66
2022/05/19 15:01:34;;;;;;;4.60;0.70;;;;;;;;;;4915263;29;20059;-66
2022/05/19 15:04:06;;;;;;;3.92;1.10;;;;;;;;;;4928618;29;20055;-66
2022/05/19 15:06:37;;;;;;;2.67;0.60;;;;;;;;;;4934153;29;20074;-66
2022/05/19 15:09:08;;;;;;;1.77;0.45;;;;;;;;;;4934111;29;20095;-66
2022/05/19 15:11:40;;;;;;;4.88;1.15;;;;;;;;;;4955618;28;20066;-66
2022/05/19 15:14:11;;;;;;;4.40;0.77;;;;;;;;;;4972250;28;20051;-66
2022/05/19 15:16:41;;;;;;;4.07;0.77;;;;;;;;;;5012292;28;20057;-65
2022/05/19 15:19:21;;;;;;;5.22;0.77;;;;;;;;;;5031081;28;20045;-66
2022/05/19 15:21:51;;;;;;;5.28;0.70;;;;;;;;;;4998161;28;20065;-66
2022/05/19 15:24:22;;;;;;;2.28;0.80;;;;;;;;;;5014720;28;20060;-66
2022/05/19 15:26:57;;;;;;;5.88;1.55;;;;;;;;;;5030948;28;20052;-66
2022/05/19 15:29:29;;;;;;;7.07;2.78;;;;;;;;;;5030757;28;20045;-66
2022/05/19 15:32:00;;;;;;;4.78;0.98;;;;;;;;;;5030455;28;20054;-65
2022/05/19 15:34:31;;;;;;;3.08;1.02;;;;;;;;;;5030680;28;20045;-66
2022/05/19 15:37:01;;;;;;;4.35;0.98;;;;;;;;;;5030821;28;20061;-66
2022/05/19 15:39:32;;;;;;;6.72;2.42;;;;;;;;;;5030716;28;20041;-66
2022/05/19 15:42:03;;;;;;;6.05;2.35;;;;;;;;;;5030806;28;20042;-65
2022/05/19 15:44:34;;;;;;;4.15;1.25;;;;;;;;;;4998385;28;20057;-66
2022/05/19 15:47:07;;;;;;;2.60;0.90;;;;;;;;;;5010576;28;20046;-66
2022/05/19 15:49:38;;;;;;;5.28;1.17;;;;;;;;;;5010554;28;20057;-66
2022/05/19 15:52:09;;;;;;;2.10;0.70;;;;;;;;;;5011069;28;20060;-65
2022/05/19 15:54:40;;;;;;;3.30;0.77;;;;;;;;;;4946629;28;20050;-65
2022/05/19 15:57:12;;;;;;;7.45;3.20;;;;;;;;;;4958344;28;20556;-66
2022/05/19 15:59:43;;;;;;;3.67;0.90;;;;;;;;;;4990964;28;20110;-65
2022/05/19 16:02:32;;;;;;;2.33;0.45;;;;;;;;;;4958484;28;20055;-65
2022/05/19 16:05:12;;;;;;;4.28;0.82;;;;;;;;;;4974766;28;20061;-66
2022/05/19 16:07:49;;;;;;;5.07;1.02;;;;;;;;;;4971183;28;20050;-66
2022/05/19 16:10:24;;;;;;;2.90;0.77;;;;;;;;;;4955421;28;20051;-66
2022/05/19 16:12:55;;;;;;;3.72;0.50;;;;;;;;;;4932428;29;20096;-66